createdAt,value
2018-02-15T00:01:25.939Z,31.00
2018-02-15T00:03:53.515Z,31.05
2018-02-15T00:06:21.041Z,29.30
2018-02-15T00:08:48.594Z,24.77
2018-02-15T00:11:16.127Z,21.27
2018-02-15T00:13:43.674Z,20.52
2018-02-15T00:16:11.254Z,20.50
2018-02-15T00:18:38.831Z,23.03
2018-02-15T00:21:06.355Z,25.67
2018-02-15T00:23:33.928Z,36.43
2018-02-15T00:26:01.488Z,43.33
2018-02-15T00:28:29.012Z,33.30
2018-02-15T00:30:56.591Z,22.80
2018-02-15T00:33:24.116Z,20.87
2018-02-15T00:35:51.668Z,17.40
2018-02-15T00:38:19.272Z,21.43
2018-02-15T00:40:46.823Z,20.48
2018-02-15T00:43:14.401Z,20.13
2018-02-15T00:45:41.979Z,20.77
2018-02-15T00:48:09.506Z,16.90
2018-02-15T00:50:37.032Z,16.93
2018-02-15T00:53:04.638Z,20.33
2018-02-15T00:55:32.486Z,19.77
2018-02-15T00:58:00.064Z,16.60
2018-02-15T01:00:27.591Z,16.83
2018-02-15T01:02:55.169Z,15.70
2018-02-15T01:05:22.696Z,17.90
2018-02-15T01:07:50.302Z,16.23
2018-02-15T01:10:17.826Z,18.03
2018-02-15T01:12:45.421Z,17.43
2018-02-15T01:15:12.927Z,16.37
2018-02-15T01:17:40.458Z,16.50
2018-02-15T01:20:08.217Z,14.77
2018-02-15T01:22:36.966Z,16.35
2018-02-15T01:25:04.560Z,15.57
2018-02-15T01:27:32.120Z,16.10
2018-02-15T01:30:00.081Z,17.87
2018-02-15T01:32:28.429Z,18.93
2018-02-15T01:34:56.324Z,19.30
2018-02-15T01:37:23.943Z,16.83
2018-02-15T01:39:51.542Z,19.43
2018-02-15T01:42:19.100Z,21.77
2018-02-15T01:44:47.159Z,18.87
2018-02-15T01:47:14.739Z,19.63
2018-02-15T01:49:54.214Z,21.23
2018-02-15T01:52:21.739Z,18.27
2018-02-15T01:54:49.255Z,19.53
2018-02-15T01:57:16.944Z,18.13
2018-02-15T01:59:44.539Z,20.13
2018-02-15T02:02:12.273Z,18.80
2018-02-15T02:04:39.802Z,19.13
2018-02-15T02:07:07.354Z,19.10
2018-02-15T02:09:34.882Z,17.58
2018-02-15T02:12:02.430Z,17.73
2018-02-15T02:14:29.967Z,22.33
2018-02-15T02:16:57.488Z,17.10
2018-02-15T02:19:25.068Z,17.10
2018-02-15T02:21:52.590Z,19.53
2018-02-15T02:24:20.144Z,18.23
2018-02-15T02:26:47.670Z,19.13
2018-02-15T02:29:15.250Z,18.98
2018-02-15T02:31:42.766Z,21.23
2018-02-15T02:34:10.329Z,19.57
2018-02-15T02:36:37.855Z,21.03
2018-02-15T02:39:05.483Z,20.10
2018-02-15T02:41:33.033Z,20.30
2018-02-15T02:44:00.563Z,18.80
2018-02-15T02:46:28.116Z,20.57
2018-02-15T02:48:55.689Z,16.00
2018-02-15T02:51:23.248Z,17.37
2018-02-15T02:53:50.801Z,20.37
2018-02-15T02:56:19.417Z,21.00
2018-02-15T02:58:46.957Z,19.03
2018-02-15T03:01:14.506Z,19.10
2018-02-15T03:03:42.054Z,20.60
2018-02-15T03:06:09.583Z,19.27
2018-02-15T03:08:37.159Z,19.83
2018-02-15T03:11:04.713Z,18.77
2018-02-15T03:13:32.317Z,22.90
2018-02-15T03:15:59.842Z,19.87
2018-02-15T03:18:27.419Z,20.10
2018-02-15T03:20:54.947Z,23.87
2018-02-15T03:23:22.475Z,19.97
2018-02-15T03:25:50.098Z,19.35
2018-02-15T03:28:17.680Z,21.83
2018-02-15T03:30:45.234Z,21.17
2018-02-15T03:33:12.759Z,23.03
2018-02-15T03:35:40.310Z,23.13
2018-02-15T03:38:07.834Z,20.90
2018-02-15T03:40:35.383Z,19.77
2018-02-15T03:43:03.041Z,21.13
2018-02-15T03:45:30.599Z,21.27
2018-02-15T03:47:58.118Z,20.13
2018-02-15T03:50:25.703Z,19.80
2018-02-15T03:52:53.251Z,22.47
2018-02-15T03:55:21.726Z,21.02
2018-02-15T03:57:49.279Z,23.20
2018-02-15T04:00:16.805Z,29.83
2018-02-15T04:02:44.423Z,39.03
2018-02-15T04:05:11.965Z,36.63
2018-02-15T04:07:39.514Z,30.30
2018-02-15T04:10:07.041Z,28.20
2018-02-15T04:12:34.616Z,25.37
2018-02-15T04:15:02.169Z,28.47
2018-02-15T04:17:29.780Z,26.25
2018-02-15T04:19:57.350Z,22.07
2018-02-15T04:22:24.895Z,29.30
2018-02-15T04:24:52.454Z,26.57
2018-02-15T04:27:19.980Z,24.17
2018-02-15T04:29:47.540Z,25.37
2018-02-15T04:32:15.059Z,22.30
2018-02-15T04:34:42.614Z,27.00
2018-02-15T04:37:10.149Z,25.53
2018-02-15T04:39:37.717Z,20.20
2018-02-15T04:42:05.246Z,21.57
2018-02-15T04:44:32.769Z,23.08
2018-02-15T04:47:00.320Z,24.13
2018-02-15T04:49:27.856Z,22.77
2018-02-15T04:51:55.423Z,23.67
2018-02-15T04:54:22.956Z,27.67
2018-02-15T04:56:50.535Z,21.93
2018-02-15T04:59:18.064Z,22.83
2018-02-15T05:01:45.630Z,24.03
2018-02-15T05:04:13.172Z,25.80
2018-02-15T05:06:40.691Z,22.97
2018-02-15T05:09:08.271Z,20.30
2018-02-15T05:11:35.833Z,19.70
2018-02-15T05:14:03.643Z,19.60
2018-02-15T05:16:31.200Z,18.70
2018-02-15T05:18:58.831Z,19.00
2018-02-15T05:21:26.378Z,21.12
2018-02-15T05:23:53.985Z,20.23
2018-02-15T05:26:22.133Z,20.48
2018-02-15T05:28:49.714Z,22.67
2018-02-15T05:31:17.241Z,20.43
2018-02-15T05:33:45.023Z,25.23
2018-02-15T05:36:12.567Z,24.10
2018-02-15T05:38:40.095Z,25.15
2018-02-15T05:41:07.649Z,27.23
2018-02-15T05:43:35.276Z,24.57
2018-02-15T05:46:02.830Z,25.10
2018-02-15T05:48:30.354Z,24.37
2018-02-15T05:50:57.907Z,28.23
2018-02-15T05:53:25.464Z,35.47
2018-02-15T05:55:53.073Z,28.27
2018-02-15T05:58:20.612Z,28.43
2018-02-15T06:00:48.147Z,29.80
2018-02-15T06:03:15.699Z,22.90
2018-02-15T06:05:43.220Z,30.37
2018-02-15T06:08:10.774Z,33.33
2018-02-15T06:10:38.298Z,35.27
2018-02-15T06:13:05.851Z,28.73
2018-02-15T06:15:33.445Z,31.67
2018-02-15T06:18:00.980Z,30.10
2018-02-15T06:20:28.506Z,29.37
2018-02-15T06:22:56.061Z,28.00
2018-02-15T06:25:23.589Z,25.53
2018-02-15T06:27:51.190Z,28.30
2018-02-15T06:30:18.744Z,29.03
2018-02-15T06:32:46.275Z,39.07
2018-02-15T06:35:13.908Z,32.63
2018-02-15T06:37:41.426Z,26.27
2018-02-15T06:40:08.980Z,30.57
2018-02-15T06:42:36.631Z,37.08
2018-02-15T06:45:04.174Z,30.13
2018-02-15T06:47:31.993Z,28.60
2018-02-15T06:49:59.560Z,26.08
2018-02-15T06:52:27.228Z,33.90
2018-02-15T06:54:54.765Z,29.80
2018-02-15T06:57:22.467Z,27.97
2018-02-15T06:59:50.072Z,26.07
2018-02-15T07:02:17.646Z,29.30
2018-02-15T07:04:45.174Z,31.17
2018-02-15T07:07:12.743Z,30.60
2018-02-15T07:09:40.373Z,26.87
2018-02-15T07:12:07.931Z,27.30
2018-02-15T07:14:35.459Z,35.13
2018-02-15T07:17:03.042Z,26.40
2018-02-15T07:19:30.562Z,34.13
2018-02-15T07:21:58.091Z,33.38
2018-02-15T07:24:25.672Z,32.97
2018-02-15T07:26:55.493Z,31.45
2018-02-15T07:29:23.714Z,23.90
2018-02-15T07:31:51.231Z,24.13
2018-02-15T07:34:18.804Z,26.03
2018-02-15T07:36:46.353Z,25.93
2018-02-15T07:39:13.930Z,26.80
2018-02-15T07:41:41.489Z,32.00
2018-02-15T07:44:09.066Z,30.73
2018-02-15T07:46:36.589Z,27.92
2018-02-15T07:49:04.114Z,30.45
2018-02-15T07:51:31.742Z,36.92
2018-02-15T07:53:59.414Z,30.57
2018-02-15T07:56:27.198Z,26.07
2018-02-15T07:58:54.796Z,35.15
2018-02-15T08:01:23.000Z,45.97
2018-02-15T08:03:51.430Z,36.23
2018-02-15T08:06:20.423Z,32.67
2018-02-15T08:08:48.057Z,36.23
2018-02-15T08:11:15.690Z,30.50
2018-02-15T08:13:43.336Z,38.03
2018-02-15T08:16:10.839Z,31.27
2018-02-15T08:18:38.809Z,33.80
2018-02-15T08:21:06.440Z,31.67
2018-02-15T08:23:34.022Z,44.07
2018-02-15T08:26:01.696Z,35.70
2018-02-15T08:28:29.251Z,37.40
2018-02-15T08:30:56.778Z,29.93
2018-02-15T08:33:25.174Z,28.43
2018-02-15T08:35:52.930Z,23.20
2018-02-15T08:38:20.462Z,27.73
2018-02-15T08:40:48.064Z,26.90
2018-02-15T08:43:15.615Z,36.70
2018-02-15T08:45:43.195Z,34.07
2018-02-15T08:48:10.720Z,32.10
2018-02-15T08:50:38.299Z,34.60
2018-02-15T08:53:05.844Z,37.50
2018-02-15T08:55:33.402Z,29.37
2018-02-15T08:58:01.326Z,27.37
2018-02-15T09:00:29.206Z,36.93
2018-02-15T09:02:56.732Z,29.27
2018-02-15T09:05:24.263Z,34.93
2018-02-15T09:07:51.837Z,27.07
2018-02-15T09:10:19.389Z,30.90
2018-02-15T09:12:46.994Z,32.67
2018-02-15T09:15:14.519Z,34.73
2018-02-15T09:17:42.070Z,32.90
2018-02-15T09:20:09.608Z,36.37
2018-02-15T09:22:38.161Z,31.37
2018-02-15T09:25:05.756Z,35.67
2018-02-15T09:27:33.308Z,31.65
2018-02-15T09:30:00.837Z,41.60
2018-02-15T09:32:28.487Z,40.42
2018-02-15T09:34:56.011Z,36.63
2018-02-15T09:37:24.515Z,27.87
2018-02-15T09:39:52.134Z,45.60
2018-02-15T09:42:19.692Z,33.43
2018-02-15T09:44:47.365Z,50.73
2018-02-15T09:47:14.899Z,45.43
2018-02-15T09:49:42.451Z,34.33
2018-02-15T09:52:10.258Z,38.77
2018-02-15T09:54:39.389Z,38.40
2018-02-15T09:57:06.907Z,44.17
2018-02-15T09:59:34.484Z,39.63
2018-02-15T10:02:03.058Z,44.40
2018-02-15T10:04:30.592Z,33.00
2018-02-15T10:06:58.414Z,44.53
2018-02-15T10:09:26.545Z,37.37
2018-02-15T10:11:54.615Z,36.00
2018-02-15T10:14:22.850Z,35.07
2018-02-15T10:16:50.476Z,41.33
2018-02-15T10:19:18.109Z,37.03
2018-02-15T10:21:45.704Z,36.30
2018-02-15T10:24:17.861Z,33.00
2018-02-15T10:26:51.784Z,39.37
2018-02-15T10:29:23.685Z,36.83
2018-02-15T10:31:56.064Z,35.60
2018-02-15T10:34:29.290Z,41.15
2018-02-15T10:39:40.149Z,36.47
2018-02-15T10:42:13.955Z,34.93
2018-02-15T10:44:46.520Z,31.70
2018-02-15T10:47:23.336Z,35.67
2018-02-15T10:49:56.632Z,30.93
2018-02-15T10:52:30.181Z,32.28
2018-02-15T10:55:04.345Z,39.03
2018-02-15T11:00:14.398Z,30.40
2018-02-15T11:02:46.254Z,33.07
2018-02-15T11:05:19.692Z,28.27
2018-02-15T11:07:50.691Z,27.97
2018-02-15T11:10:22.030Z,26.53
2018-02-15T11:12:54.220Z,28.70
2018-02-15T11:15:26.348Z,27.50
2018-02-15T11:18:00.206Z,24.55
2018-02-15T11:20:31.378Z,24.10
2018-02-15T11:23:08.089Z,32.03
2018-02-15T11:25:40.582Z,30.17
2018-02-15T11:28:10.371Z,25.95
2018-02-15T11:30:38.018Z,29.77
2018-02-15T11:33:05.620Z,26.40
2018-02-15T11:35:33.147Z,29.90
2018-02-15T11:38:00.676Z,23.87
2018-02-15T11:40:28.254Z,23.63
2018-02-15T11:42:56.431Z,29.33
2018-02-15T11:45:23.982Z,24.50
2018-02-15T11:47:51.510Z,23.90
2018-02-15T11:50:19.055Z,29.57
2018-02-15T11:52:47.133Z,24.53
2018-02-15T11:55:14.687Z,36.83
2018-02-15T11:57:42.218Z,29.80
2018-02-15T12:00:09.794Z,41.73
2018-02-15T12:02:37.324Z,27.00
2018-02-15T12:05:04.851Z,26.80
2018-02-15T12:07:32.401Z,34.72
2018-02-15T12:09:59.926Z,33.07
2018-02-15T12:12:27.477Z,29.95
2018-02-15T12:14:55.011Z,33.73
2018-02-15T12:17:22.561Z,37.92
2018-02-15T12:19:50.092Z,32.00
2018-02-15T12:22:17.638Z,41.80
2018-02-15T12:24:51.448Z,29.70
2018-02-15T12:27:19.245Z,39.47
2018-02-15T12:29:46.789Z,41.27
2018-02-15T12:32:14.350Z,42.00
2018-02-15T12:34:44.871Z,36.53
2018-02-15T12:37:13.594Z,38.23
2018-02-15T12:39:42.810Z,31.87
2018-02-15T12:42:10.658Z,36.30
2018-02-15T12:44:39.354Z,48.00
2018-02-15T12:47:07.491Z,43.43
2018-02-15T12:49:37.635Z,40.67
2018-02-15T12:52:05.893Z,37.10
2018-02-15T12:54:35.297Z,44.92
2018-02-15T12:57:02.998Z,42.60
2018-02-15T12:59:33.462Z,39.53
2018-02-15T13:02:03.207Z,62.20
2018-02-15T13:04:32.823Z,54.08
2018-02-15T13:07:00.910Z,46.00
2018-02-15T13:09:35.208Z,55.70
2018-02-15T13:12:11.466Z,52.73
2018-02-15T13:14:45.215Z,51.30
2018-02-15T13:20:04.800Z,56.27
2018-02-15T13:22:47.872Z,59.53
2018-02-15T13:28:09.553Z,54.63
2018-02-15T13:30:46.629Z,48.83
2018-02-15T13:33:21.029Z,45.30
2018-02-15T13:41:07.490Z,45.83
2018-02-15T13:43:41.744Z,46.70
2018-02-15T13:46:16.454Z,71.85
2018-02-15T13:48:48.243Z,62.03
2018-02-15T13:51:27.781Z,44.43
2018-02-15T13:54:02.679Z,54.20
2018-02-15T13:56:38.424Z,50.63
2018-02-15T14:01:46.212Z,45.40
2018-02-15T14:04:19.579Z,65.73
2018-02-15T14:06:52.241Z,49.47
2018-02-15T14:09:24.976Z,44.63
2018-02-15T14:11:57.537Z,49.33
2018-02-15T14:14:32.381Z,58.57
2018-02-15T14:17:06.319Z,54.57
2018-02-15T14:19:39.868Z,54.00
2018-02-15T14:22:11.345Z,46.40
2018-02-15T14:24:40.074Z,47.50
2018-02-15T14:27:08.099Z,54.83
2018-02-15T14:29:37.948Z,48.20
2018-02-15T14:32:10.080Z,65.33
2018-02-15T14:34:40.094Z,68.20
2018-02-15T14:37:08.884Z,51.90
2018-02-15T14:39:38.596Z,67.40
2018-02-15T14:42:06.343Z,67.73
2018-02-15T14:44:34.498Z,54.78
2018-02-15T14:47:02.322Z,37.90
2018-02-15T14:49:31.153Z,46.33
2018-02-15T14:52:00.483Z,32.20
2018-02-15T14:54:28.999Z,47.20
2018-02-15T14:57:01.466Z,52.83
2018-02-15T14:59:29.359Z,41.13
2018-02-15T15:01:58.757Z,50.00
2018-02-15T15:04:28.111Z,43.97
2018-02-15T15:06:58.165Z,57.47
2018-02-15T15:09:28.306Z,46.70
2018-02-15T15:11:59.976Z,44.60
2018-02-15T15:14:28.922Z,46.87
2018-02-15T15:16:59.222Z,61.70
2018-02-15T15:19:29.954Z,60.45
2018-02-15T15:21:59.296Z,59.30
2018-02-15T15:24:28.136Z,53.53
2018-02-15T15:26:56.549Z,55.60
2018-02-15T15:29:27.866Z,49.97
2018-02-15T15:31:56.450Z,51.60
2018-02-15T15:34:25.572Z,66.50
2018-02-15T15:36:53.140Z,41.23
2018-02-15T15:39:22.839Z,47.43
2018-02-15T15:41:50.921Z,54.57
2018-02-15T15:44:19.449Z,50.53
2018-02-15T15:46:47.028Z,55.33
2018-02-15T15:49:14.578Z,44.40
2018-02-15T15:51:42.175Z,56.47
2018-02-15T15:54:09.711Z,90.43
2018-02-15T15:56:37.937Z,87.57
2018-02-15T15:59:05.795Z,71.53
2018-02-15T16:01:33.623Z,85.97
2018-02-15T16:04:02.168Z,53.13
2018-02-15T16:06:29.694Z,68.80
2018-02-15T16:08:57.876Z,80.78
2018-02-15T16:11:25.470Z,73.57
2018-02-15T16:13:53.055Z,68.70
2018-02-15T16:16:20.604Z,64.00
2018-02-15T16:18:49.058Z,83.83
2018-02-15T16:21:16.583Z,84.90
2018-02-15T16:23:45.631Z,145.57
2018-02-15T16:26:13.189Z,60.93
2018-02-15T16:28:40.739Z,58.17
2018-02-15T16:31:08.292Z,71.17
2018-02-15T16:33:35.873Z,58.13
2018-02-15T16:36:03.422Z,62.00
2018-02-15T16:38:31.150Z,56.40
2018-02-15T16:40:58.754Z,62.00
2018-02-15T16:43:29.707Z,59.85
2018-02-15T16:45:59.511Z,64.25
2018-02-15T16:48:27.988Z,80.80
2018-02-15T16:50:58.258Z,65.10
2018-02-15T16:56:16.414Z,75.90
2018-02-15T16:58:48.880Z,64.63
2018-02-15T17:01:19.274Z,52.90
2018-02-15T17:03:48.391Z,69.93
2018-02-15T17:06:19.151Z,69.23
2018-02-15T17:08:48.078Z,58.00
2018-02-15T17:11:16.651Z,52.87
2018-02-15T17:13:46.231Z,46.17
2018-02-15T17:16:14.585Z,62.83
2018-02-15T17:18:45.809Z,96.77
2018-02-15T17:21:15.623Z,105.20
2018-02-15T17:23:44.490Z,99.07
2018-02-15T17:26:14.038Z,93.93
2018-02-15T17:28:43.348Z,68.93
2018-02-15T17:31:11.106Z,73.57
2018-02-15T17:33:40.629Z,59.90
2018-02-15T17:36:08.818Z,65.63
2018-02-15T17:38:38.131Z,83.57
2018-02-15T17:41:07.075Z,62.90
2018-02-15T17:43:35.831Z,58.33
2018-02-15T17:48:44.714Z,59.40
2018-02-15T17:51:14.023Z,50.93
2018-02-15T17:53:44.787Z,51.57
2018-02-15T17:56:14.288Z,35.13
2018-02-15T17:58:43.225Z,48.17
2018-02-15T18:01:14.608Z,35.97
2018-02-15T18:03:42.628Z,30.27
2018-02-15T18:06:11.328Z,27.57
2018-02-15T18:08:41.729Z,29.07
2018-02-15T18:11:11.163Z,37.10
2018-02-15T18:13:41.636Z,45.00
2018-02-15T18:16:12.109Z,45.73
2018-02-15T18:18:41.564Z,88.60
2018-02-15T18:21:09.992Z,46.87
2018-02-15T18:23:40.130Z,66.07
2018-02-15T18:28:51.193Z,39.23
2018-02-15T18:31:18.779Z,47.40
2018-02-15T18:33:46.458Z,47.10
2018-02-15T18:36:15.446Z,38.73
2018-02-15T18:38:43.686Z,48.00
2018-02-15T18:41:11.210Z,40.13
2018-02-15T18:43:38.738Z,36.27
2018-02-15T18:46:06.296Z,39.97
2018-02-15T18:48:33.815Z,36.47
2018-02-15T18:51:01.398Z,39.10
2018-02-15T18:53:29.130Z,36.33
2018-02-15T18:55:56.719Z,30.10
2018-02-15T18:58:24.279Z,31.27
2018-02-15T19:00:51.839Z,41.70
2018-02-15T19:03:19.392Z,38.07
2018-02-15T19:05:47.035Z,43.28
2018-02-15T19:08:15.054Z,35.03
2018-02-15T19:10:42.613Z,39.73
2018-02-15T19:13:10.141Z,38.25
2018-02-15T19:15:37.672Z,39.23
2018-02-15T19:18:05.222Z,38.17
2018-02-15T19:20:32.746Z,32.03
2018-02-15T19:23:00.304Z,35.03
2018-02-15T19:25:27.826Z,30.97
2018-02-15T19:27:56.259Z,38.97
2018-02-15T19:30:24.888Z,31.90
2018-02-15T19:32:53.411Z,45.57
2018-02-15T19:35:20.963Z,43.33
2018-02-15T19:37:48.514Z,35.27
2018-02-15T19:40:16.037Z,53.70
2018-02-15T19:42:43.594Z,42.05
2018-02-15T19:45:11.122Z,29.10
2018-02-15T19:47:39.083Z,30.37
2018-02-15T19:50:06.803Z,29.40
2018-02-15T19:52:34.323Z,38.30
2018-02-15T19:55:01.900Z,28.07
2018-02-15T19:57:29.531Z,31.03
2018-02-15T19:59:57.086Z,41.90
2018-02-15T20:02:24.610Z,31.03
2018-02-15T20:04:52.202Z,36.30
2018-02-15T20:07:19.746Z,36.53
2018-02-15T20:09:47.314Z,65.23
2018-02-15T20:12:14.844Z,29.57
2018-02-15T20:14:42.398Z,45.12
2018-02-15T20:17:10.994Z,63.23
2018-02-15T20:19:49.170Z,43.08
2018-02-15T20:22:16.706Z,39.27
2018-02-15T20:24:44.231Z,52.65
2018-02-15T20:27:17.516Z,45.13
2018-02-15T20:29:47.584Z,38.70
2018-02-15T20:32:16.294Z,48.50
2018-02-15T20:34:43.891Z,39.80
2018-02-15T20:37:11.438Z,35.80
2018-02-15T20:39:44.652Z,41.28
2018-02-15T20:42:12.247Z,39.13
2018-02-15T20:44:39.813Z,36.37
2018-02-15T20:47:07.478Z,37.13
2018-02-15T20:52:40.183Z,51.87
2018-02-15T20:55:13.284Z,35.20
2018-02-15T20:57:40.847Z,41.85
2018-02-15T21:00:08.491Z,33.95
2018-02-15T21:02:36.146Z,54.57
2018-02-15T21:05:03.697Z,39.78
2018-02-15T21:07:31.229Z,50.97
2018-02-15T21:10:00.548Z,65.35
2018-02-15T21:12:28.810Z,57.43
2018-02-15T21:14:56.427Z,56.23
2018-02-15T21:17:24.707Z,37.27
2018-02-15T21:19:52.403Z,59.07
2018-02-15T21:22:20.511Z,48.77
2018-02-15T21:24:48.169Z,39.80
2018-02-15T21:27:16.960Z,33.33
2018-02-15T21:29:46.593Z,35.47
2018-02-15T21:32:14.430Z,48.77
2018-02-15T21:34:41.991Z,48.20
2018-02-15T21:37:09.938Z,216.47
2018-02-15T21:39:37.528Z,41.93
2018-02-15T21:42:05.431Z,33.00
2018-02-15T21:44:33.131Z,53.33
2018-02-15T21:47:01.038Z,43.37
2018-02-15T21:49:28.631Z,38.77
2018-02-15T21:51:58.472Z,40.07
2018-02-15T21:54:26.187Z,46.10
2018-02-15T21:56:53.751Z,56.50
2018-02-15T21:59:22.804Z,41.37
2018-02-15T22:01:52.614Z,43.23
2018-02-15T22:04:21.992Z,50.50
2018-02-15T22:06:52.906Z,52.00
2018-02-15T22:09:21.279Z,40.07
2018-02-15T22:11:49.358Z,42.20
2018-02-15T22:14:16.930Z,61.45
2018-02-15T22:16:44.525Z,57.07
2018-02-15T22:19:12.086Z,62.50
2018-02-15T22:21:39.914Z,66.68
2018-02-15T22:24:07.868Z,64.87
2018-02-15T22:26:36.785Z,78.37
2018-02-15T22:29:04.427Z,63.60
2018-02-15T22:31:32.724Z,58.60
2018-02-15T22:34:00.307Z,83.37
2018-02-15T22:36:31.003Z,59.33
2018-02-15T22:38:59.335Z,53.77
2018-02-15T22:41:27.513Z,54.33
2018-02-15T22:43:55.582Z,49.73
2018-02-15T22:46:24.117Z,56.90
2018-02-15T22:48:51.746Z,56.13
2018-02-15T22:51:19.393Z,96.37
2018-02-15T22:53:48.419Z,51.35
2018-02-15T22:56:16.314Z,53.63
2018-02-15T22:58:43.852Z,60.90
2018-02-15T23:01:14.103Z,96.80
2018-02-15T23:03:41.653Z,54.43
2018-02-15T23:06:09.232Z,75.70
2018-02-15T23:08:36.810Z,69.43
2018-02-15T23:11:04.358Z,57.38
2018-02-15T23:13:32.012Z,67.67
2018-02-15T23:16:00.590Z,62.30
2018-02-15T23:18:28.485Z,52.87
2018-02-15T23:20:56.042Z,74.60
2018-02-15T23:23:23.593Z,72.33
2018-02-15T23:25:51.194Z,60.28
2018-02-15T23:28:18.736Z,87.23
2018-02-15T23:30:46.578Z,58.07
2018-02-15T23:33:14.216Z,62.30
2018-02-15T23:35:41.839Z,82.27
2018-02-15T23:38:09.441Z,60.40
2018-02-15T23:40:37.014Z,54.60
2018-02-15T23:43:04.638Z,54.33
2018-02-15T23:45:32.310Z,53.65
2018-02-15T23:48:00.402Z,75.20
2018-02-15T23:50:27.956Z,77.20
2018-02-15T23:52:55.949Z,77.33
2018-02-15T23:55:23.770Z,61.25
2018-02-15T23:57:51.657Z,50.93
